Terminal Aerodrome Forecast
Issued by NWS

Home | Current Version | Previous Version | Text Only | Print | Product List | Glossary On
Versions: 1 2 3 4 5 6 7 8 9 10 11 12 13 14
000
FTUS46 KLOX 312349
TAFSBA
TAF
KSBA 312349Z 0100/0124 24008KT P6SM SKC
     FM010200 VRB03KT P6SM SKC
     FM010800 10004KT 6SM BR BKN008
     FM011200 VRB03KT P6SM OVC012
     FM011600 16005KT P6SM BKN017
     FM012000 23008KT P6SM SCT022 SCT250=

USA.gov is the U.S. government's official web portal to all federal, state and local government web resources and services.